Time;durP1;ratioP1;P1;durP2;ratioP2;P2;SDS_P1;SDS_P2;PMS_P1;PMS_P2;Temp;Humidity;BMP_temperature;BMP_pressure;BME280_temperature;BME280_humidity;BME280_pressure;Samples;Min_cycle;Max_cycle;Signal;HPM_P1;HPM_P2
2023/01/20 00:01:36;;;;;;;23.27;15.57;;;;;;;;;;5015058;28;20213;-58
2023/01/20 00:04:04;;;;;;;26.57;16.07;;;;;;;;;;5014955;28;20533;-58
2023/01/20 00:06:31;;;;;;;25.00;14.37;;;;;;;;;;5015449;28;20290;-57
2023/01/20 00:09:00;;;;;;;24.63;15.20;;;;;;;;;;5015328;28;20271;-58
2023/01/20 00:11:28;;;;;;;26.33;15.07;;;;;;;;;;5019069;28;20586;-58
2023/01/20 00:13:57;;;;;;;28.10;16.83;;;;;;;;;;5019019;28;20205;-58
2023/01/20 00:16:24;;;;;;;30.40;17.00;;;;;;;;;;5018859;28;20197;-58
2023/01/20 00:18:52;;;;;;;27.00;16.47;;;;;;;;;;5019012;28;20228;-57
2023/01/20 00:21:20;;;;;;;28.40;16.37;;;;;;;;;;5018654;28;20236;-55
2023/01/20 00:23:48;;;;;;;29.70;17.70;;;;;;;;;;5018536;28;20224;-56
2023/01/20 00:26:18;;;;;;;36.00;19.23;;;;;;;;;;5018882;28;20205;-56
2023/01/20 00:28:45;;;;;;;31.53;17.43;;;;;;;;;;5018655;28;20216;-57
2023/01/20 00:31:20;;;;;;;32.57;18.20;;;;;;;;;;5018822;28;20213;-58
2023/01/20 00:33:49;;;;;;;31.67;18.50;;;;;;;;;;5018820;28;20528;-57
2023/01/20 00:36:18;;;;;;;39.63;19.23;;;;;;;;;;5018492;28;20217;-56
2023/01/20 00:38:45;;;;;;;34.80;18.77;;;;;;;;;;5019009;28;20379;-56
2023/01/20 00:41:13;;;;;;;31.03;18.93;;;;;;;;;;5018625;28;20600;-58
2023/01/20 00:43:40;;;;;;;31.67;18.27;;;;;;;;;;5018539;28;20225;-59
2023/01/20 00:46:07;;;;;;;33.17;19.10;;;;;;;;;;5018781;28;20202;-58
2023/01/20 00:48:35;;;;;;;36.30;19.60;;;;;;;;;;5018186;28;20209;-56
2023/01/20 00:51:03;;;;;;;36.20;20.03;;;;;;;;;;5018213;28;20263;-57
2023/01/20 00:53:30;;;;;;;41.53;22.40;;;;;;;;;;5017484;28;20243;-56
2023/01/20 00:55:58;;;;;;;41.67;22.83;;;;;;;;;;5018341;28;20233;-56
2023/01/20 00:58:25;;;;;;;44.97;23.20;;;;;;;;;;5018607;28;20210;-56
2023/01/20 01:00:53;;;;;;;41.70;23.97;;;;;;;;;;5018062;28;20577;-58
2023/01/20 01:03:21;;;;;;;42.27;22.20;;;;;;;;;;5018059;28;20287;-58
2023/01/20 01:05:48;;;;;;;54.50;26.40;;;;;;;;;;5018153;28;20205;-57
2023/01/20 01:08:15;;;;;;;45.53;24.07;;;;;;;;;;5017817;28;20201;-59
2023/01/20 01:10:42;;;;;;;38.13;21.90;;;;;;;;;;5017780;28;20240;-57
2023/01/20 01:13:10;;;;;;;41.47;21.67;;;;;;;;;;5018274;28;20649;-58
2023/01/20 01:15:37;;;;;;;43.93;23.70;;;;;;;;;;5017740;28;20257;-59
2023/01/20 01:18:04;;;;;;;43.70;23.63;;;;;;;;;;5017765;28;20213;-58
2023/01/20 01:20:31;;;;;;;41.67;23.03;;;;;;;;;;5016890;28;20293;-57
2023/01/20 01:22:58;;;;;;;50.80;25.17;;;;;;;;;;5017399;28;20291;-57
2023/01/20 01:25:25;;;;;;;42.60;23.87;;;;;;;;;;5017878;28;20202;-58
2023/01/20 01:27:52;;;;;;;44.33;24.30;;;;;;;;;;5017570;28;20212;-58
2023/01/20 01:30:19;;;;;;;47.50;23.87;;;;;;;;;;5017655;28;20205;-58
2023/01/20 01:32:47;;;;;;;47.43;24.70;;;;;;;;;;5017307;28;20516;-58
2023/01/20 01:35:14;;;;;;;47.93;25.23;;;;;;;;;;5017496;28;20211;-55
2023/01/20 01:37:42;;;;;;;47.17;26.20;;;;;;;;;;5017532;28;20209;-57
2023/01/20 01:40:10;;;;;;;48.43;23.53;;;;;;;;;;5017163;28;20237;-57
2023/01/20 01:42:37;;;;;;;50.13;25.27;;;;;;;;;;5017448;28;20246;-57
2023/01/20 01:45:10;;;;;;;43.23;22.73;;;;;;;;;;5017433;28;20205;-57
2023/01/20 01:48:04;;;;;;;44.10;22.60;;;;;;;;;;5018034;28;20205;-58
2023/01/20 01:50:46;;;;;;;44.10;23.20;;;;;;;;;;5017145;28;20194;-58
2023/01/20 01:53:14;;;;;;;40.43;22.03;;;;;;;;;;5017110;28;20216;-58
2023/01/20 01:55:49;;;;;;;39.93;21.17;;;;;;;;;;5016882;28;20597;-58
2023/01/20 01:58:18;;;;;;;51.63;25.17;;;;;;;;;;5017265;28;20209;-56
2023/01/20 02:00:46;;;;;;;43.07;23.30;;;;;;;;;;5016086;28;20209;-58
2023/01/20 02:03:13;;;;;;;45.87;23.27;;;;;;;;;;5016719;28;20564;-58
2023/01/20 02:05:41;;;;;;;41.27;21.00;;;;;;;;;;5016925;28;20248;-57
2023/01/20 02:08:08;;;;;;;37.10;20.53;;;;;;;;;;5016884;28;20205;-59
2023/01/20 02:10:35;;;;;;;48.83;22.47;;;;;;;;;;5016619;28;20259;-56
2023/01/20 02:13:03;;;;;;;39.20;21.33;;;;;;;;;;5016679;28;20296;-59
2023/01/20 02:15:38;;;;;;;34.93;20.40;;;;;;;;;;5016718;28;20232;-58
2023/01/20 02:18:14;;;;;;;32.47;19.23;;;;;;;;;;5032309;28;20208;-59
2023/01/20 02:20:50;;;;;;;36.67;19.97;;;;;;;;;;5016408;28;20198;-57
2023/01/20 02:23:41;;;;;;;36.93;19.73;;;;;;;;;;5016970;28;20279;-57
2023/01/20 02:26:39;;;;;;;32.20;18.70;;;;;;;;;;5016929;28;20251;-57
2023/01/20 02:29:46;;;;;;;39.90;19.70;;;;;;;;;;5032004;28;20212;-57
2023/01/20 02:32:37;;;;;;;32.87;17.93;;;;;;;;;;5016037;28;20216;-57
2023/01/20 02:35:37;;;;;;;35.60;18.73;;;;;;;;;;5016448;28;20202;-57
2023/01/20 02:38:10;;;;;;;36.10;19.63;;;;;;;;;;5020608;28;20213;-55
2023/01/20 02:40:47;;;;;;;39.60;20.43;;;;;;;;;;5016190;28;20197;-58
2023/01/20 02:43:18;;;;;;;36.07;19.40;;;;;;;;;;5015929;28;20308;-54
2023/01/20 02:46:22;;;;;;;36.17;19.60;;;;;;;;;;5031578;28;20201;-55
2023/01/20 02:49:00;;;;;;;36.37;18.93;;;;;;;;;;5016389;28;20231;-56
2023/01/20 02:51:32;;;;;;;38.23;19.80;;;;;;;;;;5015278;28;20201;-55
2023/01/20 02:54:03;;;;;;;41.70;20.67;;;;;;;;;;5015298;28;20277;-55
2023/01/20 02:56:31;;;;;;;42.27;20.33;;;;;;;;;;5015820;28;20630;-56
2023/01/20 02:59:05;;;;;;;37.53;19.47;;;;;;;;;;5031219;28;20236;-55
2023/01/20 03:01:38;;;;;;;42.60;20.90;;;;;;;;;;5015948;28;20197;-55
2023/01/20 03:04:08;;;;;;;37.60;19.67;;;;;;;;;;5015770;28;20650;-56
2023/01/20 03:06:38;;;;;;;36.00;19.80;;;;;;;;;;5014807;28;20637;-54
2023/01/20 03:09:09;;;;;;;40.03;20.50;;;;;;;;;;5015000;28;20585;-56
2023/01/20 03:11:40;;;;;;;39.63;21.53;;;;;;;;;;5015084;28;20201;-56
2023/01/20 03:14:10;;;;;;;37.13;19.33;;;;;;;;;;5014729;28;20642;-55
2023/01/20 03:16:37;;;;;;;41.67;19.33;;;;;;;;;;5014559;28;20205;-58
2023/01/20 03:19:04;;;;;;;38.43;21.13;;;;;;;;;;5015595;28;20638;-56
2023/01/20 03:21:33;;;;;;;35.37;19.63;;;;;;;;;;5015745;28;20201;-54
2023/01/20 03:24:01;;;;;;;36.10;19.60;;;;;;;;;;5015600;28;20600;-56
2023/01/20 03:26:29;;;;;;;37.80;20.20;;;;;;;;;;5015444;28;20201;-53
2023/01/20 03:28:57;;;;;;;36.43;18.97;;;;;;;;;;5015744;28;20201;-56
2023/01/20 03:31:25;;;;;;;33.97;19.47;;;;;;;;;;5015177;28;20209;-55
2023/01/20 03:33:55;;;;;;;34.00;18.67;;;;;;;;;;5015438;28;20521;-56
2023/01/20 03:36:24;;;;;;;32.63;18.53;;;;;;;;;;5015174;28;20271;-56
2023/01/20 03:38:52;;;;;;;39.13;19.47;;;;;;;;;;5014197;28;20736;-55
2023/01/20 03:41:33;;;;;;;36.40;18.63;;;;;;;;;;5015327;28;20259;-53
2023/01/20 03:44:10;;;;;;;34.90;17.60;;;;;;;;;;5013579;28;20232;-56
2023/01/20 03:47:23;;;;;;;33.20;17.70;;;;;;;;;;5015565;28;20228;-58
2023/01/20 03:49:54;;;;;;;36.33;18.83;;;;;;;;;;5009883;28;20201;-57
2023/01/20 03:52:32;;;;;;;35.27;18.30;;;;;;;;;;5030416;28;20582;-56
2023/01/20 03:55:24;;;;;;;35.13;18.77;;;;;;;;;;5028913;28;20209;-58
2023/01/20 03:57:51;;;;;;;36.47;19.43;;;;;;;;;;5014971;28;20603;-56
2023/01/20 04:00:20;;;;;;;37.63;19.70;;;;;;;;;;5015000;28;20684;-57
2023/01/20 04:02:48;;;;;;;33.97;19.43;;;;;;;;;;5031248;28;20272;-57
2023/01/20 04:05:16;;;;;;;36.47;19.67;;;;;;;;;;5014309;28;20201;-58
2023/01/20 04:07:44;;;;;;;37.10;18.93;;;;;;;;;;5015013;28;20197;-59
2023/01/20 04:10:15;;;;;;;34.47;18.70;;;;;;;;;;5015061;28;20272;-57
2023/01/20 04:12:42;;;;;;;37.47;19.70;;;;;;;;;;5015332;28;20209;-59
2023/01/20 04:15:10;;;;;;;37.43;20.13;;;;;;;;;;5015072;28;20212;-58
2023/01/20 04:17:37;;;;;;;39.43;20.83;;;;;;;;;;5015112;28;20209;-57
2023/01/20 04:20:09;;;;;;;36.93;19.60;;;;;;;;;;5015549;28;20209;-58
2023/01/20 04:22:53;;;;;;;35.43;18.87;;;;;;;;;;5015181;28;20561;-58
2023/01/20 04:25:28;;;;;;;36.70;19.23;;;;;;;;;;5014114;28;20240;-58
2023/01/20 04:27:55;;;;;;;34.43;19.73;;;;;;;;;;5015065;28;20271;-58
2023/01/20 04:30:22;;;;;;;36.70;20.67;;;;;;;;;;5015219;28;20258;-60
2023/01/20 04:32:50;;;;;;;38.60;20.40;;;;;;;;;;5018623;28;20654;-57
2023/01/20 04:35:18;;;;;;;47.13;23.17;;;;;;;;;;5011779;28;20201;-58
2023/01/20 04:37:45;;;;;;;39.67;20.57;;;;;;;;;;5014116;28;20206;-57
2023/01/20 04:40:13;;;;;;;34.53;19.27;;;;;;;;;;5012074;28;20239;-61
2023/01/20 04:42:40;;;;;;;39.53;21.73;;;;;;;;;;5011886;28;20205;-59
2023/01/20 04:45:08;;;;;;;38.87;20.40;;;;;;;;;;5004772;28;20256;-56
2023/01/20 04:47:36;;;;;;;40.73;20.60;;;;;;;;;;5031011;28;20202;-59
2023/01/20 04:50:03;;;;;;;39.87;21.23;;;;;;;;;;5004705;28;20275;-58
2023/01/20 04:52:30;;;;;;;43.17;23.83;;;;;;;;;;5006098;28;20231;-54
2023/01/20 04:54:57;;;;;;;36.53;20.63;;;;;;;;;;5006573;28;20210;-58
2023/01/20 04:57:25;;;;;;;38.10;21.07;;;;;;;;;;5008118;28;20528;-58
2023/01/20 04:59:52;;;;;;;40.67;21.50;;;;;;;;;;5006979;28;20233;-57
2023/01/20 05:02:19;;;;;;;66.43;27.03;;;;;;;;;;5007696;28;20636;-60
2023/01/20 05:04:46;;;;;;;50.97;24.87;;;;;;;;;;5000758;28;20222;-57
2023/01/20 05:07:14;;;;;;;52.27;25.33;;;;;;;;;;4998432;28;20559;-56
2023/01/20 05:09:41;;;;;;;46.87;24.80;;;;;;;;;;4999352;28;20202;-58
2023/01/20 05:12:08;;;;;;;167.23;75.13;;;;;;;;;;5010343;28;20202;-56
2023/01/20 05:14:35;;;;;;;440.13;169.20;;;;;;;;;;5013568;28;20233;-58
2023/01/20 05:17:02;;;;;;;271.40;113.40;;;;;;;;;;5017034;28;20229;-58
2023/01/20 05:19:29;;;;;;;118.07;68.77;;;;;;;;;;5007644;28;20254;-58
2023/01/20 05:21:58;;;;;;;128.80;87.40;;;;;;;;;;5014271;28;20251;-57
2023/01/20 05:24:25;;;;;;;79.20;50.57;;;;;;;;;;5004596;28;20242;-56
2023/01/20 05:26:52;;;;;;;45.23;23.90;;;;;;;;;;5008683;28;20230;-57
2023/01/20 05:29:19;;;;;;;47.40;23.53;;;;;;;;;;5007725;28;20240;-58
2023/01/20 05:31:47;;;;;;;40.57;20.70;;;;;;;;;;5016997;28;20226;-58
2023/01/20 05:34:15;;;;;;;45.47;22.00;;;;;;;;;;5020987;28;20680;-59
2023/01/20 05:36:42;;;;;;;42.07;20.93;;;;;;;;;;5010552;28;20280;-58
2023/01/20 05:39:09;;;;;;;36.47;20.10;;;;;;;;;;5001382;28;20585;-58
2023/01/20 05:41:36;;;;;;;38.83;19.50;;;;;;;;;;4997180;28;20303;-58
2023/01/20 05:44:04;;;;;;;50.43;24.77;;;;;;;;;;4996777;28;20237;-59
2023/01/20 05:46:31;;;;;;;40.63;22.43;;;;;;;;;;4996506;28;20292;-58
2023/01/20 05:48:58;;;;;;;57.13;28.53;;;;;;;;;;5005747;28;20213;-60
2023/01/20 05:51:26;;;;;;;81.33;40.37;;;;;;;;;;5026566;28;20539;-59
2023/01/20 05:53:53;;;;;;;69.47;42.10;;;;;;;;;;5035522;28;20227;-58
2023/01/20 05:56:20;;;;;;;54.07;30.27;;;;;;;;;;5036052;28;20232;-58
2023/01/20 05:58:47;;;;;;;57.03;29.73;;;;;;;;;;5035785;28;20294;-58
2023/01/20 06:01:14;;;;;;;51.20;27.43;;;;;;;;;;5015910;28;20285;-60
2023/01/20 06:03:41;;;;;;;47.23;24.10;;;;;;;;;;5016127;28;20233;-58
2023/01/20 06:06:13;;;;;;;48.37;25.33;;;;;;;;;;5015716;28;20234;-58
2023/01/20 06:08:41;;;;;;;42.87;23.13;;;;;;;;;;5013439;28;20712;-61
2023/01/20 06:11:08;;;;;;;41.60;21.17;;;;;;;;;;5014659;28;20237;-59
2023/01/20 06:13:35;;;;;;;43.53;21.57;;;;;;;;;;4996585;28;20238;-58
2023/01/20 06:16:03;;;;;;;46.53;24.13;;;;;;;;;;4997020;28;20284;-58
2023/01/20 06:18:33;;;;;;;50.83;25.90;;;;;;;;;;4996881;28;20228;-56
2023/01/20 06:21:00;;;;;;;47.07;22.90;;;;;;;;;;4995548;28;20214;-57
2023/01/20 06:23:28;;;;;;;45.97;24.03;;;;;;;;;;4996748;28;20639;-58
2023/01/20 06:26:07;;;;;;;45.63;25.50;;;;;;;;;;4996755;28;20221;-58
2023/01/20 06:28:34;;;;;;;42.80;22.00;;;;;;;;;;4996550;28;20296;-57
2023/01/20 06:31:04;;;;;;;40.07;19.90;;;;;;;;;;4996388;28;20272;-58
2023/01/20 06:33:32;;;;;;;38.33;19.93;;;;;;;;;;4995541;28;20406;-58
2023/01/20 06:36:00;;;;;;;39.30;21.63;;;;;;;;;;4996661;28;20210;-57
2023/01/20 06:38:29;;;;;;;53.10;28.47;;;;;;;;;;4996184;28;20241;-58
2023/01/20 06:41:04;;;;;;;42.80;22.80;;;;;;;;;;4996274;28;20210;-58
2023/01/20 06:43:33;;;;;;;48.93;30.40;;;;;;;;;;4996188;28;20215;-57
2023/01/20 06:46:04;;;;;;;60.63;33.47;;;;;;;;;;5011056;28;20201;-58
2023/01/20 06:48:32;;;;;;;41.13;26.63;;;;;;;;;;5015922;28;20206;-54
2023/01/20 06:51:08;;;;;;;40.10;23.23;;;;;;;;;;5015737;28;20268;-58
2023/01/20 06:53:35;;;;;;;41.57;23.67;;;;;;;;;;5015668;28;20247;-59
2023/01/20 06:56:03;;;;;;;31.03;18.43;;;;;;;;;;5015587;28;20735;-59
2023/01/20 06:58:31;;;;;;;34.23;22.30;;;;;;;;;;5015817;28;20205;-59
2023/01/20 07:01:28;;;;;;;39.10;23.43;;;;;;;;;;5015832;28;20275;-59
2023/01/20 07:03:56;;;;;;;38.03;21.13;;;;;;;;;;5015437;28;20240;-59
2023/01/20 07:06:23;;;;;;;30.70;16.67;;;;;;;;;;5015985;28;20275;-59
2023/01/20 07:08:50;;;;;;;25.53;15.53;;;;;;;;;;5015728;28;20201;-58
2023/01/20 07:11:18;;;;;;;25.73;15.63;;;;;;;;;;5015658;28;20653;-56
2023/01/20 07:13:45;;;;;;;25.43;14.73;;;;;;;;;;5015812;28;20209;-58
2023/01/20 07:16:13;;;;;;;30.60;16.30;;;;;;;;;;5015520;28;20629;-58
2023/01/20 07:18:43;;;;;;;25.27;15.30;;;;;;;;;;5014709;28;20272;-58
2023/01/20 07:21:11;;;;;;;22.87;13.43;;;;;;;;;;5014884;28;20209;-56
2023/01/20 07:23:38;;;;;;;23.20;13.67;;;;;;;;;;5015437;28;20210;-57
2023/01/20 07:26:07;;;;;;;25.40;14.70;;;;;;;;;;5015338;28;20213;-59
2023/01/20 07:28:35;;;;;;;19.30;12.57;;;;;;;;;;5015809;28;20263;-58
2023/01/20 07:31:03;;;;;;;20.13;11.80;;;;;;;;;;5015221;28;20205;-59
2023/01/20 07:33:31;;;;;;;21.60;13.10;;;;;;;;;;5015585;28;20259;-58
2023/01/20 07:35:59;;;;;;;23.33;12.90;;;;;;;;;;5015570;28;20216;-57
2023/01/20 07:38:27;;;;;;;22.47;13.97;;;;;;;;;;5013660;28;20552;-59
2023/01/20 07:41:02;;;;;;;21.30;12.47;;;;;;;;;;5013967;28;20193;-58
2023/01/20 07:43:31;;;;;;;21.17;13.43;;;;;;;;;;5015355;28;20194;-60
2023/01/20 07:46:00;;;;;;;21.67;12.63;;;;;;;;;;5015108;28;20213;-60
2023/01/20 07:48:32;;;;;;;22.83;13.53;;;;;;;;;;5015075;28;20633;-60
2023/01/20 07:51:05;;;;;;;25.03;14.23;;;;;;;;;;5014841;28;20252;-60
2023/01/20 07:53:37;;;;;;;24.97;13.63;;;;;;;;;;5015134;28;20228;-60
2023/01/20 07:56:11;;;;;;;24.23;13.80;;;;;;;;;;5015030;28;20202;-60
2023/01/20 07:58:38;;;;;;;22.37;13.20;;;;;;;;;;5015215;28;20193;-60
2023/01/20 08:01:14;;;;;;;26.20;14.53;;;;;;;;;;5014585;28;20213;-59
2023/01/20 08:03:42;;;;;;;21.33;12.73;;;;;;;;;;5015244;28;20212;-59
2023/01/20 08:06:12;;;;;;;19.83;12.30;;;;;;;;;;5014927;28;20201;-58
2023/01/20 08:08:39;;;;;;;19.87;11.97;;;;;;;;;;5014636;28;20205;-59
2023/01/20 08:11:08;;;;;;;18.50;11.97;;;;;;;;;;5014823;28;20264;-60
2023/01/20 08:13:35;;;;;;;19.87;11.40;;;;;;;;;;5014149;28;20624;-59
2023/01/20 08:16:03;;;;;;;21.83;12.53;;;;;;;;;;5013716;28;20208;-60
2023/01/20 08:18:31;;;;;;;22.00;12.47;;;;;;;;;;5014936;28;20267;-59
2023/01/20 08:20:58;;;;;;;20.07;11.77;;;;;;;;;;5014367;28;20201;-59
2023/01/20 08:23:25;;;;;;;20.00;12.17;;;;;;;;;;5015044;28;20241;-58
2023/01/20 08:25:58;;;;;;;17.10;11.33;;;;;;;;;;5014760;28;20221;-59
2023/01/20 08:28:25;;;;;;;21.40;13.50;;;;;;;;;;5009998;28;20304;-60
2023/01/20 08:30:53;;;;;;;20.67;12.60;;;;;;;;;;5015700;28;20228;-60
2023/01/20 08:33:20;;;;;;;22.00;13.47;;;;;;;;;;5017644;28;20292;-63
2023/01/20 08:35:47;;;;;;;22.80;13.53;;;;;;;;;;5018457;28;20193;-60
2023/01/20 08:38:14;;;;;;;22.67;14.67;;;;;;;;;;5018773;28;20212;-59
2023/01/20 08:40:42;;;;;;;21.83;14.33;;;;;;;;;;5018691;28;20190;-59
2023/01/20 08:43:09;;;;;;;22.63;14.00;;;;;;;;;;5018598;28;20211;-59
2023/01/20 08:45:36;;;;;;;20.87;13.70;;;;;;;;;;5018006;28;20221;-59
2023/01/20 08:48:03;;;;;;;22.67;13.97;;;;;;;;;;5018333;28;20205;-60
2023/01/20 08:50:31;;;;;;;22.53;13.67;;;;;;;;;;5018311;28;20194;-59
2023/01/20 08:52:58;;;;;;;18.70;12.70;;;;;;;;;;5018524;28;20240;-59
2023/01/20 08:55:25;;;;;;;23.77;14.23;;;;;;;;;;5017874;28;20271;-60
2023/01/20 08:57:52;;;;;;;21.07;13.13;;;;;;;;;;5017940;28;20583;-60
2023/01/20 09:00:20;;;;;;;22.50;13.83;;;;;;;;;;5018101;28;20219;-60
2023/01/20 09:02:47;;;;;;;20.47;13.53;;;;;;;;;;5016897;28;20264;-60
2023/01/20 09:05:14;;;;;;;19.83;13.27;;;;;;;;;;5017638;28;20228;-61
2023/01/20 09:07:42;;;;;;;21.80;13.63;;;;;;;;;;5018104;28;20205;-60
2023/01/20 09:10:10;;;;;;;23.53;13.93;;;;;;;;;;5017906;28;20240;-59
2023/01/20 09:12:37;;;;;;;22.00;14.63;;;;;;;;;;5017982;28;20201;-58
2023/01/20 09:15:06;;;;;;;23.27;14.50;;;;;;;;;;5017534;28;20792;-59
2023/01/20 09:17:34;;;;;;;25.57;15.77;;;;;;;;;;5017871;28;20218;-59
2023/01/20 09:20:02;;;;;;;21.80;15.03;;;;;;;;;;5017956;28;20241;-60
2023/01/20 09:22:29;;;;;;;25.50;15.57;;;;;;;;;;5015544;28;20205;-60
2023/01/20 09:24:56;;;;;;;26.37;17.67;;;;;;;;;;5017305;28;20676;-59
2023/01/20 09:27:24;;;;;;;27.83;18.83;;;;;;;;;;5017616;28;20268;-59
2023/01/20 09:29:51;;;;;;;26.30;17.67;;;;;;;;;;5017496;28;20197;-59
2023/01/20 09:32:18;;;;;;;28.63;19.10;;;;;;;;;;5017106;28;20209;-59
2023/01/20 09:34:45;;;;;;;29.27;18.73;;;;;;;;;;5017538;28;20209;-59
2023/01/20 09:45:38;;;;;;;31.30;19.33;;;;;;;;;;5017348;28;20280;-59
2023/01/20 09:48:14;;;;;;;33.63;20.10;;;;;;;;;;5017459;28;20197;-59
2023/01/20 09:53:40;;;;;;;40.33;22.43;;;;;;;;;;5016260;28;20244;-59
2023/01/20 09:56:19;;;;;;;32.70;19.60;;;;;;;;;;5016764;28;20209;-59
2023/01/20 09:58:56;;;;;;;32.10;19.83;;;;;;;;;;5032628;28;20259;-58
2023/01/20 10:01:29;;;;;;;31.90;19.73;;;;;;;;;;5017145;28;20216;-58
2023/01/20 10:04:08;;;;;;;33.97;20.27;;;;;;;;;;5017132;28;20194;-59
2023/01/20 10:06:38;;;;;;;33.23;20.47;;;;;;;;;;5016134;28;20217;-59
2023/01/20 10:09:16;;;;;;;33.93;21.10;;;;;;;;;;5029491;28;20220;-59
2023/01/20 10:11:45;;;;;;;35.27;21.63;;;;;;;;;;5007173;28;20607;-59
2023/01/20 10:14:26;;;;;;;40.10;21.47;;;;;;;;;;5020079;28;20273;-59
2023/01/20 10:16:57;;;;;;;38.13;22.03;;;;;;;;;;5006784;28;20190;-58
2023/01/20 10:19:30;;;;;;;39.13;22.43;;;;;;;;;;5004623;28;20186;-61
2023/01/20 10:22:10;;;;;;;37.50;22.53;;;;;;;;;;5006413;28;20202;-59
2023/01/20 10:24:47;;;;;;;38.67;22.23;;;;;;;;;;5004201;28;20214;-60
2023/01/20 10:27:15;;;;;;;39.17;23.13;;;;;;;;;;5009750;28;20201;-59
2023/01/20 10:29:57;;;;;;;32.13;18.80;;;;;;;;;;5006646;28;20206;-59
2023/01/20 10:32:58;;;;;;;37.33;21.93;;;;;;;;;;5008692;28;20217;-62
2023/01/20 10:35:27;;;;;;;33.50;18.90;;;;;;;;;;5006628;28;20286;-61
2023/01/20 10:37:57;;;;;;;31.13;18.67;;;;;;;;;;5004532;28;20193;-61
2023/01/20 10:40:35;;;;;;;30.90;18.63;;;;;;;;;;5005992;28;20225;-59
2023/01/20 10:43:11;;;;;;;35.13;19.77;;;;;;;;;;5022320;28;20194;-59
2023/01/20 10:45:58;;;;;;;35.40;20.90;;;;;;;;;;5019346;28;20300;-59
2023/01/20 10:48:40;;;;;;;31.83;19.13;;;;;;;;;;5006171;28;20181;-60
2023/01/20 10:51:25;;;;;;;32.57;20.07;;;;;;;;;;5007443;28;20193;-60
2023/01/20 10:54:14;;;;;;;30.50;18.03;;;;;;;;;;5005567;28;20673;-60
2023/01/20 10:56:54;;;;;;;30.47;18.20;;;;;;;;;;5008007;28;20203;-59
2023/01/20 10:59:52;;;;;;;28.67;17.47;;;;;;;;;;5003278;28;20187;-56
2023/01/20 11:02:28;;;;;;;26.70;15.93;;;;;;;;;;5004594;28;20202;-59
2023/01/20 11:05:00;;;;;;;25.97;15.80;;;;;;;;;;5001827;28;20590;-59
2023/01/20 11:07:28;;;;;;;25.93;15.20;;;;;;;;;;5005022;28;20210;-57
2023/01/20 11:09:55;;;;;;;25.77;16.03;;;;;;;;;;5020872;28;20195;-58
2023/01/20 11:12:26;;;;;;;25.13;15.40;;;;;;;;;;5002054;28;20202;-59
2023/01/20 11:14:55;;;;;;;24.37;15.63;;;;;;;;;;5002591;28;20198;-59
2023/01/20 11:17:21;;;;;;;26.53;16.20;;;;;;;;;;5008121;28;20201;-60
2023/01/20 11:19:56;;;;;;;28.13;16.60;;;;;;;;;;5003630;28;20558;-58
2023/01/20 11:22:26;;;;;;;25.97;16.53;;;;;;;;;;5006898;28;20185;-57
2023/01/20 11:24:57;;;;;;;29.90;17.33;;;;;;;;;;5003333;28;20295;-59
2023/01/20 11:27:32;;;;;;;28.60;17.10;;;;;;;;;;5007757;28;20267;-59
2023/01/20 11:30:04;;;;;;;29.73;18.47;;;;;;;;;;5002726;28;20189;-58
2023/01/20 11:32:34;;;;;;;29.00;17.17;;;;;;;;;;5004802;28;20276;-61
2023/01/20 11:35:23;;;;;;;27.77;17.43;;;;;;;;;;5020715;28;20201;-59
2023/01/20 11:37:51;;;;;;;28.90;18.33;;;;;;;;;;5007918;28;20197;-58
2023/01/20 11:40:21;;;;;;;33.23;19.87;;;;;;;;;;5018209;28;20234;-59
2023/01/20 11:42:50;;;;;;;31.13;17.87;;;;;;;;;;5005082;28;20193;-58
2023/01/20 11:45:33;;;;;;;28.00;17.07;;;;;;;;;;5004861;28;20279;-60
2023/01/20 11:48:04;;;;;;;27.00;15.77;;;;;;;;;;5007220;28;20192;-58
2023/01/20 11:50:48;;;;;;;25.83;15.03;;;;;;;;;;5004559;28;20202;-58
2023/01/20 11:53:24;;;;;;;23.17;14.27;;;;;;;;;;5004702;28;20213;-58
2023/01/20 11:55:58;;;;;;;16.57;10.43;;;;;;;;;;5004513;28;20261;-58
2023/01/20 11:58:29;;;;;;;16.40;11.43;;;;;;;;;;5006095;28;20193;-59
2023/01/20 12:01:02;;;;;;;19.53;12.57;;;;;;;;;;5004680;28;20261;-58
2023/01/20 12:03:40;;;;;;;17.57;11.13;;;;;;;;;;5007313;28;20524;-59
2023/01/20 12:06:17;;;;;;;18.83;12.20;;;;;;;;;;5025040;28;20229;-58
2023/01/20 12:08:59;;;;;;;16.20;11.03;;;;;;;;;;5006977;28;20189;-58
2023/01/20 12:11:36;;;;;;;17.80;11.47;;;;;;;;;;5008051;28;20301;-59
2023/01/20 12:14:19;;;;;;;17.20;11.10;;;;;;;;;;5007975;28;20188;-59
2023/01/20 12:16:52;;;;;;;17.80;11.47;;;;;;;;;;5021593;28;20206;-59
2023/01/20 12:19:20;;;;;;;19.23;11.47;;;;;;;;;;5008671;28;20641;-58
2023/01/20 12:21:51;;;;;;;19.23;12.17;;;;;;;;;;5006991;28;20206;-59
2023/01/20 12:27:27;;;;;;;21.23;12.80;;;;;;;;;;5026832;28;20915;-60
2023/01/20 12:30:02;;;;;;;19.77;11.97;;;;;;;;;;5007787;28;20198;-59
2023/01/20 12:32:32;;;;;;;20.60;12.07;;;;;;;;;;5005778;28;20189;-59
2023/01/20 12:34:59;;;;;;;19.13;12.23;;;;;;;;;;5005815;28;20269;-58
2023/01/20 12:37:55;;;;;;;23.07;13.50;;;;;;;;;;5012709;28;20225;-58
2023/01/20 12:40:55;;;;;;;26.37;14.50;;;;;;;;;;5006548;28;20315;-58
2023/01/20 12:43:31;;;;;;;27.17;15.50;;;;;;;;;;5006908;28;20214;-58
2023/01/20 12:46:08;;;;;;;20.50;12.40;;;;;;;;;;5006874;28;20316;-58
2023/01/20 12:49:03;;;;;;;20.87;11.53;;;;;;;;;;5027906;28;20263;-58
2023/01/20 12:51:48;;;;;;;19.60;12.20;;;;;;;;;;5007036;28;20198;-59
2023/01/20 12:54:23;;;;;;;15.67;9.97;;;;;;;;;;5006744;28;20206;-58
2023/01/20 12:56:54;;;;;;;17.10;9.87;;;;;;;;;;5006746;28;20203;-59
2023/01/20 12:59:27;;;;;;;17.30;11.60;;;;;;;;;;5004229;28;20210;-58
2023/01/20 13:02:17;;;;;;;15.27;9.50;;;;;;;;;;5006337;28;20229;-60
2023/01/20 13:04:59;;;;;;;16.13;10.17;;;;;;;;;;5006115;28;20194;-58
2023/01/20 13:07:49;;;;;;;16.67;10.57;;;;;;;;;;5007391;28;20189;-60
2023/01/20 13:10:34;;;;;;;14.97;9.37;;;;;;;;;;5006468;28;20210;-62
2023/01/20 13:13:16;;;;;;;16.27;10.17;;;;;;;;;;4999408;28;20201;-58
2023/01/20 13:15:57;;;;;;;20.17;11.73;;;;;;;;;;5016242;28;20247;-56
2023/01/20 13:18:43;;;;;;;17.70;9.70;;;;;;;;;;5011325;28;20202;-59
2023/01/20 13:21:17;;;;;;;17.50;10.07;;;;;;;;;;4997311;28;20190;-63
2023/01/20 13:23:45;;;;;;;14.90;9.60;;;;;;;;;;5014373;28;20245;-58
2023/01/20 13:26:12;;;;;;;15.47;8.60;;;;;;;;;;5016623;28;20229;-58
2023/01/20 13:28:50;;;;;;;12.23;7.83;;;;;;;;;;5016625;28;20193;-58
2023/01/20 13:31:35;;;;;;;10.83;7.50;;;;;;;;;;5017347;28;20642;-58
2023/01/20 13:34:21;;;;;;;11.30;7.23;;;;;;;;;;5009473;28;20681;-59
2023/01/20 13:37:22;;;;;;;12.83;7.97;;;;;;;;;;5016265;28;20221;-58
2023/01/20 13:39:49;;;;;;;20.27;10.70;;;;;;;;;;5014506;28;20236;-58
2023/01/20 13:42:35;;;;;;;15.37;9.83;;;;;;;;;;5013393;28;20222;-60
2023/01/20 13:45:11;;;;;;;13.30;7.77;;;;;;;;;;4996738;28;20234;-57
2023/01/20 13:47:58;;;;;;;13.67;8.40;;;;;;;;;;5016380;28;20232;-55
2023/01/20 13:50:32;;;;;;;16.20;9.70;;;;;;;;;;5015866;28;20861;-54
2023/01/20 13:53:09;;;;;;;13.97;9.20;;;;;;;;;;5016598;28;20247;-54
2023/01/20 13:55:40;;;;;;;12.77;8.03;;;;;;;;;;5015962;28;20681;-55
2023/01/20 13:58:18;;;;;;;17.00;11.23;;;;;;;;;;5015912;28;20560;-55
2023/01/20 14:00:49;;;;;;;26.30;12.47;;;;;;;;;;5016264;28;20229;-58
2023/01/20 14:03:20;;;;;;;42.17;14.67;;;;;;;;;;5015867;28;20225;-50
2023/01/20 14:05:52;;;;;;;15.47;10.33;;;;;;;;;;5015846;28;20666;-51
2023/01/20 14:08:21;;;;;;;14.17;10.93;;;;;;;;;;5013997;28;20673;-54
2023/01/20 14:10:48;;;;;;;16.97;11.70;;;;;;;;;;5015603;28;20225;-50
2023/01/20 14:13:21;;;;;;;19.63;11.80;;;;;;;;;;5015917;28;20225;-54
2023/01/20 14:15:53;;;;;;;17.63;11.30;;;;;;;;;;5015679;28;20261;-54
2023/01/20 14:18:22;;;;;;;14.67;9.87;;;;;;;;;;5015254;28;21066;-58
2023/01/20 14:21:04;;;;;;;12.50;9.13;;;;;;;;;;5014736;28;20229;-54
2023/01/20 14:23:34;;;;;;;12.27;8.97;;;;;;;;;;5015217;28;20229;-55
2023/01/20 14:26:10;;;;;;;13.10;10.00;;;;;;;;;;5015147;28;20237;-56
2023/01/20 14:28:46;;;;;;;15.83;10.70;;;;;;;;;;5015203;28;20229;-58
2023/01/20 14:31:14;;;;;;;13.23;9.93;;;;;;;;;;5015333;28;20228;-59
2023/01/20 14:33:46;;;;;;;13.00;9.27;;;;;;;;;;5030339;28;20756;-59
2023/01/20 14:36:18;;;;;;;13.67;9.37;;;;;;;;;;5015480;28;20312;-55
2023/01/20 14:39:08;;;;;;;13.07;9.50;;;;;;;;;;5014854;28;20241;-54
2023/01/20 14:41:46;;;;;;;13.53;9.43;;;;;;;;;;5015491;28;20229;-55
2023/01/20 14:44:24;;;;;;;14.90;10.90;;;;;;;;;;5015320;28;20228;-54
2023/01/20 14:46:56;;;;;;;16.63;11.13;;;;;;;;;;5021340;28;20232;-55
2023/01/20 14:49:29;;;;;;;15.63;11.07;;;;;;;;;;5017216;28;20233;-51
2023/01/20 14:51:57;;;;;;;14.20;10.77;;;;;;;;;;5004409;28;20225;-54
2023/01/20 14:54:44;;;;;;;15.37;10.83;;;;;;;;;;5027373;28;20221;-58
2023/01/20 14:57:20;;;;;;;18.20;11.50;;;;;;;;;;5015361;28;20225;-55
2023/01/20 15:00:00;;;;;;;17.47;10.87;;;;;;;;;;4995205;28;20229;-52
2023/01/20 15:02:33;;;;;;;14.80;10.87;;;;;;;;;;4995282;28;20234;-51